sensor_id;sensor_type;location;lat;lon;timestamp;temperature;humidity
2603;DHT22;1311;47.966;7.958;2022-09-13T00:08:36;14.10;99.90
2603;DHT22;1311;47.966;7.958;2022-09-13T00:18:27;14.00;99.90
2603;DHT22;1311;47.966;7.958;2022-09-13T00:21:03;14.00;99.90
2603;DHT22;1311;47.966;7.958;2022-09-13T00:23:30;14.00;99.90
2603;DHT22;1311;47.966;7.958;2022-09-13T00:26:03;13.90;99.90
2603;DHT22;1311;47.966;7.958;2022-09-13T00:28:30;14.00;99.90
2603;DHT22;1311;47.966;7.958;2022-09-13T00:30:59;14.00;99.90
2603;DHT22;1311;47.966;7.958;2022-09-13T00:35:53;13.90;99.90
2603;DHT22;1311;47.966;7.958;2022-09-13T00:43:18;13.90;99.90
2603;DHT22;1311;47.966;7.958;2022-09-13T00:45:45;13.90;99.90
2603;DHT22;1311;47.966;7.958;2022-09-13T00:48:17;13.90;99.90
2603;DHT22;1311;47.966;7.958;2022-09-13T00:50:48;13.80;99.90
2603;DHT22;1311;47.966;7.958;2022-09-13T00:53:20;13.80;99.90
2603;DHT22;1311;47.966;7.958;2022-09-13T00:58:23;13.80;99.90
2603;DHT22;1311;47.966;7.958;2022-09-13T01:00:51;13.80;99.90
2603;DHT22;1311;47.966;7.958;2022-09-13T01:03:20;13.70;99.90
2603;DHT22;1311;47.966;7.958;2022-09-13T01:05:52;13.70;99.90
2603;DHT22;1311;47.966;7.958;2022-09-13T01:10:49;13.70;99.90
2603;DHT22;1311;47.966;7.958;2022-09-13T01:13:18;13.70;99.90
2603;DHT22;1311;47.966;7.958;2022-09-13T01:15:47;13.60;99.90
2603;DHT22;1311;47.966;7.958;2022-09-13T01:18:15;13.70;99.90
2603;DHT22;1311;47.966;7.958;2022-09-13T01:27:11;13.60;99.90
2603;DHT22;1311;47.966;7.958;2022-09-13T01:30:10;13.60;99.90
2603;DHT22;1311;47.966;7.958;2022-09-13T01:35:41;13.60;99.90
2603;DHT22;1311;47.966;7.958;2022-09-13T01:38:17;13.50;99.90
2603;DHT22;1311;47.966;7.958;2022-09-13T01:40:58;13.50;99.90
2603;DHT22;1311;47.966;7.958;2022-09-13T01:43:41;13.50;99.90
2603;DHT22;1311;47.966;7.958;2022-09-13T01:46:13;13.40;99.90
2603;DHT22;1311;47.966;7.958;2022-09-13T01:48:53;13.40;99.90
2603;DHT22;1311;47.966;7.958;2022-09-13T01:51:26;13.40;99.90
2603;DHT22;1311;47.966;7.958;2022-09-13T01:54:04;13.30;99.90
2603;DHT22;1311;47.966;7.958;2022-09-13T01:56:37;13.40;99.90
2603;DHT22;1311;47.966;7.958;2022-09-13T02:01:41;13.30;99.90
2603;DHT22;1311;47.966;7.958;2022-09-13T02:04:13;13.30;99.90
2603;DHT22;1311;47.966;7.958;2022-09-13T02:06:43;13.30;99.90
2603;DHT22;1311;47.966;7.958;2022-09-13T02:09:13;13.30;99.90
2603;DHT22;1311;47.966;7.958;2022-09-13T02:11:43;13.30;99.90
2603;DHT22;1311;47.966;7.958;2022-09-13T02:14:14;13.40;99.90
2603;DHT22;1311;47.966;7.958;2022-09-13T02:16:47;13.40;99.90
2603;DHT22;1311;47.966;7.958;2022-09-13T02:19:17;13.50;99.90
2603;DHT22;1311;47.966;7.958;2022-09-13T02:21:50;13.50;99.90
2603;DHT22;1311;47.966;7.958;2022-09-13T02:24:22;13.50;99.90
2603;DHT22;1311;47.966;7.958;2022-09-13T02:26:52;13.40;99.90
2603;DHT22;1311;47.966;7.958;2022-09-13T02:29:23;13.40;99.90
2603;DHT22;1311;47.966;7.958;2022-09-13T02:31:55;13.40;99.90
2603;DHT22;1311;47.966;7.958;2022-09-13T02:34:25;13.30;99.90
2603;DHT22;1311;47.966;7.958;2022-09-13T02:36:54;13.30;99.90
2603;DHT22;1311;47.966;7.958;2022-09-13T02:39:24;13.30;99.90
2603;DHT22;1311;47.966;7.958;2022-09-13T02:41:55;13.20;99.90
2603;DHT22;1311;47.966;7.958;2022-09-13T02:44:26;13.20;99.90
2603;DHT22;1311;47.966;7.958;2022-09-13T02:47:09;13.20;99.90
2603;DHT22;1311;47.966;7.958;2022-09-13T02:49:46;13.10;99.90
2603;DHT22;1311;47.966;7.958;2022-09-13T02:52:23;13.10;99.90
2603;DHT22;1311;47.966;7.958;2022-09-13T02:54:58;13.10;99.90
2603;DHT22;1311;47.966;7.958;2022-09-13T02:57:32;13.10;99.90
2603;DHT22;1311;47.966;7.958;2022-09-13T03:00:03;13.10;99.90
2603;DHT22;1311;47.966;7.958;2022-09-13T03:02:33;13.10;99.90
2603;DHT22;1311;47.966;7.958;2022-09-13T03:05:00;13.20;99.90
2603;DHT22;1311;47.966;7.958;2022-09-13T03:10:00;13.20;99.90
2603;DHT22;1311;47.966;7.958;2022-09-13T03:13:04;13.20;99.90
2603;DHT22;1311;47.966;7.958;2022-09-13T03:15:50;13.20;99.90
2603;DHT22;1311;47.966;7.958;2022-09-13T03:18:35;13.30;99.90
2603;DHT22;1311;47.966;7.958;2022-09-13T03:21:08;13.20;99.90
2603;DHT22;1311;47.966;7.958;2022-09-13T03:23:45;13.20;99.90
2603;DHT22;1311;47.966;7.958;2022-09-13T03:26:25;13.20;99.90
2603;DHT22;1311;47.966;7.958;2022-09-13T03:29:01;13.20;99.90
2603;DHT22;1311;47.966;7.958;2022-09-13T03:31:33;13.20;99.90
2603;DHT22;1311;47.966;7.958;2022-09-13T03:34:09;13.20;99.90
2603;DHT22;1311;47.966;7.958;2022-09-13T03:36:41;13.10;99.90
2603;DHT22;1311;47.966;7.958;2022-09-13T03:39:11;13.20;99.90
2603;DHT22;1311;47.966;7.958;2022-09-13T03:41:43;13.20;99.90
2603;DHT22;1311;47.966;7.958;2022-09-13T03:44:15;13.20;99.90
2603;DHT22;1311;47.966;7.958;2022-09-13T03:46:47;13.30;99.90
2603;DHT22;1311;47.966;7.958;2022-09-13T03:49:17;13.30;99.90
2603;DHT22;1311;47.966;7.958;2022-09-13T03:51:47;13.30;99.90
2603;DHT22;1311;47.966;7.958;2022-09-13T03:54:17;13.30;99.90
2603;DHT22;1311;47.966;7.958;2022-09-13T03:57:05;13.30;99.90
2603;DHT22;1311;47.966;7.958;2022-09-13T03:59:32;13.30;99.90
2603;DHT22;1311;47.966;7.958;2022-09-13T04:04:29;13.30;99.90
2603;DHT22;1311;47.966;7.958;2022-09-13T04:06:56;13.40;99.90
2603;DHT22;1311;47.966;7.958;2022-09-13T04:09:23;13.40;99.90
2603;DHT22;1311;47.966;7.958;2022-09-13T04:11:49;13.30;99.90
2603;DHT22;1311;47.966;7.958;2022-09-13T04:16:43;13.30;99.90
2603;DHT22;1311;47.966;7.958;2022-09-13T04:21:39;13.30;99.90
2603;DHT22;1311;47.966;7.958;2022-09-13T04:24:06;13.30;99.90
2603;DHT22;1311;47.966;7.958;2022-09-13T04:33:54;13.30;99.90
2603;DHT22;1311;47.966;7.958;2022-09-13T04:36:21;13.30;99.90
2603;DHT22;1311;47.966;7.958;2022-09-13T04:38:49;13.30;99.90
2603;DHT22;1311;47.966;7.958;2022-09-13T04:41:16;12.70;99.90
2603;DHT22;1311;47.966;7.958;2022-09-13T04:51:04;13.50;99.90
2603;DHT22;1311;47.966;7.958;2022-09-13T04:56:04;13.40;99.90
2603;DHT22;1311;47.966;7.958;2022-09-13T04:58:31;13.50;99.90
2603;DHT22;1311;47.966;7.958;2022-09-13T05:01:01;13.50;99.90
2603;DHT22;1311;47.966;7.958;2022-09-13T05:03:29;13.60;99.90
2603;DHT22;1311;47.966;7.958;2022-09-13T05:06:01;13.60;99.90
2603;DHT22;1311;47.966;7.958;2022-09-13T05:08:28;13.60;99.90
2603;DHT22;1311;47.966;7.958;2022-09-13T05:13:24;13.70;99.90
2603;DHT22;1311;47.966;7.958;2022-09-13T05:15:54;13.70;99.90
2603;DHT22;1311;47.966;7.958;2022-09-13T05:23:15;13.90;99.90
2603;DHT22;1311;47.966;7.958;2022-09-13T05:25:43;14.00;99.90
2603;DHT22;1311;47.966;7.958;2022-09-13T05:30:38;14.10;99.90
2603;DHT22;1311;47.966;7.958;2022-09-13T05:35:32;14.40;99.90
2603;DHT22;1311;47.966;7.958;2022-09-13T05:40:25;15.20;99.90
2603;DHT22;1311;47.966;7.958;2022-09-13T05:45:19;15.80;99.90
2603;DHT22;1311;47.966;7.958;2022-09-13T05:47:50;15.90;99.90
2603;DHT22;1311;47.966;7.958;2022-09-13T05:50:17;16.30;99.90
2603;DHT22;1311;47.966;7.958;2022-09-13T06:00:06;16.30;99.90
2603;DHT22;1311;47.966;7.958;2022-09-13T06:02:33;16.20;99.90
2603;DHT22;1311;47.966;7.958;2022-09-13T06:05:02;16.10;99.90
2603;DHT22;1311;47.966;7.958;2022-09-13T06:09:56;15.90;99.90
2603;DHT22;1311;47.966;7.958;2022-09-13T06:17:17;15.80;99.90
2603;DHT22;1311;47.966;7.958;2022-09-13T06:19:44;15.90;99.90
2603;DHT22;1311;47.966;7.958;2022-09-13T06:22:14;16.00;99.90
2603;DHT22;1311;47.966;7.958;2022-09-13T06:24:41;16.00;99.90
2603;DHT22;1311;47.966;7.958;2022-09-13T06:39:25;16.50;99.90
2603;DHT22;1311;47.966;7.958;2022-09-13T06:44:19;16.80;99.90
2603;DHT22;1311;47.966;7.958;2022-09-13T06:51:40;17.20;99.90
2603;DHT22;1311;47.966;7.958;2022-09-13T06:56:36;18.20;99.90
2603;DHT22;1311;47.966;7.958;2022-09-13T06:59:05;17.60;99.90
2603;DHT22;1311;47.966;7.958;2022-09-13T07:01:34;17.80;99.90
2603;DHT22;1311;47.966;7.958;2022-09-13T07:04:03;18.00;99.90
2603;DHT22;1311;47.966;7.958;2022-09-13T07:06:32;18.10;99.90
2603;DHT22;1311;47.966;7.958;2022-09-13T07:09:00;18.40;99.90
2603;DHT22;1311;47.966;7.958;2022-09-13T07:11:30;18.50;99.90
2603;DHT22;1311;47.966;7.958;2022-09-13T07:13:58;18.70;99.90
2603;DHT22;1311;47.966;7.958;2022-09-13T07:16:27;18.90;99.90
2603;DHT22;1311;47.966;7.958;2022-09-13T07:18:55;19.00;99.90
2603;DHT22;1311;47.966;7.958;2022-09-13T07:21:24;19.00;99.90
2603;DHT22;1311;47.966;7.958;2022-09-13T07:23:52;19.10;99.90
2603;DHT22;1311;47.966;7.958;2022-09-13T07:26:19;19.20;99.90
2603;DHT22;1311;47.966;7.958;2022-09-13T07:28:48;19.40;99.90
2603;DHT22;1311;47.966;7.958;2022-09-13T07:31:18;19.50;99.90
2603;DHT22;1311;47.966;7.958;2022-09-13T07:33:46;19.60;99.90
2603;DHT22;1311;47.966;7.958;2022-09-13T07:36:14;19.90;99.90
2603;DHT22;1311;47.966;7.958;2022-09-13T07:38:42;20.00;99.90
2603;DHT22;1311;47.966;7.958;2022-09-13T07:41:14;20.20;99.90
2603;DHT22;1311;47.966;7.958;2022-09-13T07:43:41;20.30;99.90
2603;DHT22;1311;47.966;7.958;2022-09-13T07:46:10;20.40;99.90
2603;DHT22;1311;47.966;7.958;2022-09-13T07:48:39;20.50;99.90
2603;DHT22;1311;47.966;7.958;2022-09-13T07:51:08;20.60;99.90
2603;DHT22;1311;47.966;7.958;2022-09-13T07:53:36;20.70;99.90
2603;DHT22;1311;47.966;7.958;2022-09-13T07:56:04;20.80;99.90
2603;DHT22;1311;47.966;7.958;2022-09-13T07:58:32;20.90;99.90
2603;DHT22;1311;47.966;7.958;2022-09-13T08:01:03;21.00;99.90
2603;DHT22;1311;47.966;7.958;2022-09-13T08:03:31;21.10;99.90
2603;DHT22;1311;47.966;7.958;2022-09-13T08:06:00;21.10;99.90
2603;DHT22;1311;47.966;7.958;2022-09-13T08:08:27;21.10;99.90
2603;DHT22;1311;47.966;7.958;2022-09-13T08:10:54;21.20;99.90
2603;DHT22;1311;47.966;7.958;2022-09-13T08:13:21;21.30;99.90
2603;DHT22;1311;47.966;7.958;2022-09-13T08:15:48;21.40;99.90
2603;DHT22;1311;47.966;7.958;2022-09-13T08:18:15;21.40;99.90
2603;DHT22;1311;47.966;7.958;2022-09-13T08:23:11;21.60;99.90
2603;DHT22;1311;47.966;7.958;2022-09-13T08:25:39;21.70;99.90
2603;DHT22;1311;47.966;7.958;2022-09-13T08:28:06;21.80;99.90
2603;DHT22;1311;47.966;7.958;2022-09-13T08:30:34;21.90;99.90
2603;DHT22;1311;47.966;7.958;2022-09-13T08:40:27;22.30;99.90
2603;DHT22;1311;47.966;7.958;2022-09-13T08:42:58;22.40;99.90
2603;DHT22;1311;47.966;7.958;2022-09-13T08:47:57;22.60;99.90
2603;DHT22;1311;47.966;7.958;2022-09-13T08:50:27;22.60;99.90
2603;DHT22;1311;47.966;7.958;2022-09-13T08:53:15;22.80;99.90
2603;DHT22;1311;47.966;7.958;2022-09-13T08:55:50;22.90;99.90
2603;DHT22;1311;47.966;7.958;2022-09-13T08:58:48;22.90;99.90
2603;DHT22;1311;47.966;7.958;2022-09-13T09:01:19;23.10;99.90
2603;DHT22;1311;47.966;7.958;2022-09-13T09:03:52;23.20;99.90
2603;DHT22;1311;47.966;7.958;2022-09-13T09:08:52;23.50;99.90
2603;DHT22;1311;47.966;7.958;2022-09-13T09:11:27;23.70;99.90
2603;DHT22;1311;47.966;7.958;2022-09-13T09:14:01;23.80;99.90
2603;DHT22;1311;47.966;7.958;2022-09-13T09:16:36;24.00;99.90
2603;DHT22;1311;47.966;7.958;2022-09-13T09:19:15;24.10;99.90
2603;DHT22;1311;47.966;7.958;2022-09-13T09:21:44;24.10;99.90
2603;DHT22;1311;47.966;7.958;2022-09-13T09:24:18;24.30;99.90
2603;DHT22;1311;47.966;7.958;2022-09-13T09:26:46;24.50;99.90
2603;DHT22;1311;47.966;7.958;2022-09-13T09:29:17;24.60;99.90
2603;DHT22;1311;47.966;7.958;2022-09-13T09:31:51;24.70;99.90
2603;DHT22;1311;47.966;7.958;2022-09-13T09:34:25;24.90;99.90
2603;DHT22;1311;47.966;7.958;2022-09-13T09:37:03;25.00;99.90
2603;DHT22;1311;47.966;7.958;2022-09-13T09:42:10;25.10;99.90
2603;DHT22;1311;47.966;7.958;2022-09-13T09:44:38;24.90;99.90
2603;DHT22;1311;47.966;7.958;2022-09-13T09:47:16;24.80;99.90
2603;DHT22;1311;47.966;7.958;2022-09-13T09:49:46;24.70;99.90
2603;DHT22;1311;47.966;7.958;2022-09-13T09:52:34;24.60;99.90
2603;DHT22;1311;47.966;7.958;2022-09-13T09:55:16;24.40;99.90
2603;DHT22;1311;47.966;7.958;2022-09-13T09:57:55;24.40;99.90
2603;DHT22;1311;47.966;7.958;2022-09-13T10:00:24;24.50;99.90
2603;DHT22;1311;47.966;7.958;2022-09-13T10:02:54;24.60;99.90
2603;DHT22;1311;47.966;7.958;2022-09-13T10:05:22;24.70;99.90
2603;DHT22;1311;47.966;7.958;2022-09-13T10:08:04;24.90;99.90
2603;DHT22;1311;47.966;7.958;2022-09-13T10:10:36;25.10;99.90
2603;DHT22;1311;47.966;7.958;2022-09-13T10:13:11;25.20;99.90
2603;DHT22;1311;47.966;7.958;2022-09-13T10:15:51;25.40;99.90
2603;DHT22;1311;47.966;7.958;2022-09-13T10:18:20;25.70;99.90
2603;DHT22;1311;47.966;7.958;2022-09-13T10:21:01;25.90;99.90
2603;DHT22;1311;47.966;7.958;2022-09-13T10:23:29;25.90;99.90
2603;DHT22;1311;47.966;7.958;2022-09-13T10:26:06;26.20;99.90
2603;DHT22;1311;47.966;7.958;2022-09-13T10:28:41;26.30;99.90
2603;DHT22;1311;47.966;7.958;2022-09-13T10:31:12;26.40;99.90
2603;DHT22;1311;47.966;7.958;2022-09-13T10:33:42;26.50;99.90
2603;DHT22;1311;47.966;7.958;2022-09-13T10:36:13;26.70;99.90
2603;DHT22;1311;47.966;7.958;2022-09-13T10:38:47;26.90;99.90
2603;DHT22;1311;47.966;7.958;2022-09-13T10:41:21;27.00;99.90
2603;DHT22;1311;47.966;7.958;2022-09-13T10:43:55;27.10;99.90
2603;DHT22;1311;47.966;7.958;2022-09-13T10:46:23;27.20;99.90
2603;DHT22;1311;47.966;7.958;2022-09-13T10:48:50;27.20;99.90
2603;DHT22;1311;47.966;7.958;2022-09-13T10:51:30;27.40;99.90
2603;DHT22;1311;47.966;7.958;2022-09-13T10:54:19;27.40;99.90
2603;DHT22;1311;47.966;7.958;2022-09-13T10:56:46;27.50;99.90
2603;DHT22;1311;47.966;7.958;2022-09-13T10:59:19;27.50;99.90
2603;DHT22;1311;47.966;7.958;2022-09-13T11:01:58;27.50;99.90
2603;DHT22;1311;47.966;7.958;2022-09-13T11:05:00;27.50;99.90
2603;DHT22;1311;47.966;7.958;2022-09-13T11:08:06;27.40;99.90
2603;DHT22;1311;47.966;7.958;2022-09-13T11:10:41;27.40;99.90
2603;DHT22;1311;47.966;7.958;2022-09-13T11:13:20;27.50;99.90
2603;DHT22;1311;47.966;7.958;2022-09-13T11:15:58;27.50;99.90
2603;DHT22;1311;47.966;7.958;2022-09-13T11:18:49;27.70;99.90
2603;DHT22;1311;47.966;7.958;2022-09-13T11:21:31;27.70;99.90
2603;DHT22;1311;47.966;7.958;2022-09-13T11:24:13;27.90;99.90
2603;DHT22;1311;47.966;7.958;2022-09-13T11:26:51;28.00;99.90
2603;DHT22;1311;47.966;7.958;2022-09-13T11:29:32;28.10;99.90
2603;DHT22;1311;47.966;7.958;2022-09-13T11:32:12;28.20;99.90
2603;DHT22;1311;47.966;7.958;2022-09-13T11:35:03;28.40;99.90
2603;DHT22;1311;47.966;7.958;2022-09-13T11:37:42;28.60;99.90
2603;DHT22;1311;47.966;7.958;2022-09-13T11:40:27;28.70;99.90
2603;DHT22;1311;47.966;7.958;2022-09-13T11:43:08;28.90;99.90
2603;DHT22;1311;47.966;7.958;2022-09-13T11:45:39;29.00;99.90
2603;DHT22;1311;47.966;7.958;2022-09-13T11:48:38;29.10;99.90
2603;DHT22;1311;47.966;7.958;2022-09-13T11:51:13;29.20;99.90
2603;DHT22;1311;47.966;7.958;2022-09-13T11:54:01;29.30;99.90
2603;DHT22;1311;47.966;7.958;2022-09-13T11:56:34;29.30;99.90
2603;DHT22;1311;47.966;7.958;2022-09-13T11:59:12;29.30;99.90
2603;DHT22;1311;47.966;7.958;2022-09-13T12:01:44;29.30;99.90
2603;DHT22;1311;47.966;7.958;2022-09-13T12:04:17;29.40;99.90
2603;DHT22;1311;47.966;7.958;2022-09-13T12:06:49;29.40;99.90
2603;DHT22;1311;47.966;7.958;2022-09-13T12:09:21;29.40;99.90
2603;DHT22;1311;47.966;7.958;2022-09-13T12:11:52;29.30;99.90
2603;DHT22;1311;47.966;7.958;2022-09-13T12:14:22;29.30;99.90
2603;DHT22;1311;47.966;7.958;2022-09-13T12:16:54;29.20;99.90
2603;DHT22;1311;47.966;7.958;2022-09-13T12:19:27;29.30;99.90
2603;DHT22;1311;47.966;7.958;2022-09-13T12:21:57;29.20;99.90
2603;DHT22;1311;47.966;7.958;2022-09-13T12:24:31;29.10;99.90
2603;DHT22;1311;47.966;7.958;2022-09-13T12:27:03;29.20;99.90
2603;DHT22;1311;47.966;7.958;2022-09-13T12:29:35;29.30;99.90
2603;DHT22;1311;47.966;7.958;2022-09-13T12:32:07;29.10;99.90
2603;DHT22;1311;47.966;7.958;2022-09-13T12:34:41;29.10;99.90
2603;DHT22;1311;47.966;7.958;2022-09-13T12:37:22;29.10;99.90
2603;DHT22;1311;47.966;7.958;2022-09-13T12:40:03;29.10;99.90
2603;DHT22;1311;47.966;7.958;2022-09-13T12:45:58;29.10;99.90
2603;DHT22;1311;47.966;7.958;2022-09-13T12:48:56;29.10;99.90
2603;DHT22;1311;47.966;7.958;2022-09-13T12:51:43;29.00;99.90
2603;DHT22;1311;47.966;7.958;2022-09-13T12:57:29;28.90;99.90
2603;DHT22;1311;47.966;7.958;2022-09-13T13:00:20;28.80;99.90
2603;DHT22;1311;47.966;7.958;2022-09-13T13:02:58;28.70;99.90
2603;DHT22;1311;47.966;7.958;2022-09-13T13:05:29;28.80;99.90
2603;DHT22;1311;47.966;7.958;2022-09-13T13:08:00;28.80;99.90
2603;DHT22;1311;47.966;7.958;2022-09-13T13:10:30;28.80;99.90
2603;DHT22;1311;47.966;7.958;2022-09-13T13:13:12;28.90;99.90
2603;DHT22;1311;47.966;7.958;2022-09-13T13:16:21;28.90;99.90
2603;DHT22;1311;47.966;7.958;2022-09-13T13:18:49;28.90;99.90
2603;DHT22;1311;47.966;7.958;2022-09-13T13:21:32;28.90;99.90
2603;DHT22;1311;47.966;7.958;2022-09-13T13:24:41;29.00;99.90
2603;DHT22;1311;47.966;7.958;2022-09-13T13:27:37;29.10;99.90
2603;DHT22;1311;47.966;7.958;2022-09-13T13:30:40;29.10;99.90
2603;DHT22;1311;47.966;7.958;2022-09-13T13:33:23;29.10;99.90
2603;DHT22;1311;47.966;7.958;2022-09-13T13:35:50;29.10;99.90
2603;DHT22;1311;47.966;7.958;2022-09-13T13:38:41;29.10;99.90
2603;DHT22;1311;47.966;7.958;2022-09-13T13:41:38;29.10;99.90
2603;DHT22;1311;47.966;7.958;2022-09-13T13:52:58;29.30;99.90
2603;DHT22;1311;47.966;7.958;2022-09-13T13:55:43;29.30;99.90
2603;DHT22;1311;47.966;7.958;2022-09-13T13:58:32;29.30;99.90
2603;DHT22;1311;47.966;7.958;2022-09-13T14:01:03;29.20;99.90
2603;DHT22;1311;47.966;7.958;2022-09-13T14:03:41;29.10;99.90
2603;DHT22;1311;47.966;7.958;2022-09-13T14:06:16;29.00;99.90
2603;DHT22;1311;47.966;7.958;2022-09-13T14:08:57;28.80;99.90
2603;DHT22;1311;47.966;7.958;2022-09-13T14:11:39;28.70;99.90
2603;DHT22;1311;47.966;7.958;2022-09-13T14:14:23;28.60;99.90
2603;DHT22;1311;47.966;7.958;2022-09-13T14:17:00;28.50;99.90
2603;DHT22;1311;47.966;7.958;2022-09-13T14:19:39;28.40;99.90
2603;DHT22;1311;47.966;7.958;2022-09-13T14:22:13;28.30;99.90
2603;DHT22;1311;47.966;7.958;2022-09-13T14:24:42;28.30;99.90
2603;DHT22;1311;47.966;7.958;2022-09-13T14:27:16;28.30;99.90
2603;DHT22;1311;47.966;7.958;2022-09-13T14:29:47;28.30;99.90
2603;DHT22;1311;47.966;7.958;2022-09-13T14:32:17;28.30;99.90
2603;DHT22;1311;47.966;7.958;2022-09-13T14:34:57;28.30;99.90
2603;DHT22;1311;47.966;7.958;2022-09-13T14:37:27;28.30;99.90
2603;DHT22;1311;47.966;7.958;2022-09-13T14:39:57;28.30;99.90
2603;DHT22;1311;47.966;7.958;2022-09-13T14:44:53;28.20;99.90
2603;DHT22;1311;47.966;7.958;2022-09-13T14:47:27;28.10;99.90
2603;DHT22;1311;47.966;7.958;2022-09-13T14:50:00;28.10;99.90
2603;DHT22;1311;47.966;7.958;2022-09-13T14:52:54;28.10;99.90
2603;DHT22;1311;47.966;7.958;2022-09-13T14:55:26;28.00;99.90
2603;DHT22;1311;47.966;7.958;2022-09-13T14:57:57;28.00;99.90
2603;DHT22;1311;47.966;7.958;2022-09-13T15:00:31;28.00;99.90
2603;DHT22;1311;47.966;7.958;2022-09-13T15:03:02;28.00;99.90
2603;DHT22;1311;47.966;7.958;2022-09-13T15:05:31;27.90;99.90
2603;DHT22;1311;47.966;7.958;2022-09-13T15:07:59;27.80;99.90
2603;DHT22;1311;47.966;7.958;2022-09-13T15:10:28;27.80;99.90
2603;DHT22;1311;47.966;7.958;2022-09-13T15:13:07;27.80;99.90
2603;DHT22;1311;47.966;7.958;2022-09-13T15:15:37;27.80;99.90
2603;DHT22;1311;47.966;7.958;2022-09-13T15:18:05;27.70;99.90
2603;DHT22;1311;47.966;7.958;2022-09-13T15:20:50;27.60;99.90
2603;DHT22;1311;47.966;7.958;2022-09-13T15:23:22;27.50;99.90
2603;DHT22;1311;47.966;7.958;2022-09-13T15:25:52;27.50;99.90
2603;DHT22;1311;47.966;7.958;2022-09-13T15:28:23;27.50;99.90
2603;DHT22;1311;47.966;7.958;2022-09-13T15:33:27;27.40;99.90
2603;DHT22;1311;47.966;7.958;2022-09-13T15:39:09;27.40;99.90
2603;DHT22;1311;47.966;7.958;2022-09-13T15:41:39;27.30;99.90
2603;DHT22;1311;47.966;7.958;2022-09-13T15:44:08;27.30;99.90
2603;DHT22;1311;47.966;7.958;2022-09-13T15:46:44;27.30;99.90
2603;DHT22;1311;47.966;7.958;2022-09-13T15:49:15;27.30;99.90
2603;DHT22;1311;47.966;7.958;2022-09-13T15:51:43;27.20;99.90
2603;DHT22;1311;47.966;7.958;2022-09-13T15:54:11;27.20;99.90
2603;DHT22;1311;47.966;7.958;2022-09-13T15:56:43;27.30;99.90
2603;DHT22;1311;47.966;7.958;2022-09-13T15:59:12;27.40;99.90
2603;DHT22;1311;47.966;7.958;2022-09-13T16:01:40;27.40;99.90
2603;DHT22;1311;47.966;7.958;2022-09-13T16:09:06;27.50;99.90
2603;DHT22;1311;47.966;7.958;2022-09-13T16:19:00;26.90;99.90
2603;DHT22;1311;47.966;7.958;2022-09-13T16:28:50;26.50;99.90
2603;DHT22;1311;47.966;7.958;2022-09-13T16:36:13;26.20;99.90
2603;DHT22;1311;47.966;7.958;2022-09-13T16:41:08;26.10;99.90
2603;DHT22;1311;47.966;7.958;2022-09-13T16:43:36;26.10;99.90
2603;DHT22;1311;47.966;7.958;2022-09-13T16:46:05;26.00;99.90
2603;DHT22;1311;47.966;7.958;2022-09-13T16:51:02;25.80;99.90
2603;DHT22;1311;47.966;7.958;2022-09-13T16:53:32;25.80;99.90
2603;DHT22;1311;47.966;7.958;2022-09-13T16:56:06;25.70;99.90
2603;DHT22;1311;47.966;7.958;2022-09-13T16:58:35;25.70;99.90
2603;DHT22;1311;47.966;7.958;2022-09-13T17:01:03;25.60;99.90
2603;DHT22;1311;47.966;7.958;2022-09-13T17:05:58;25.40;99.90
2603;DHT22;1311;47.966;7.958;2022-09-13T17:08:25;25.40;99.90
2603;DHT22;1311;47.966;7.958;2022-09-13T17:10:53;25.20;99.90
2603;DHT22;1311;47.966;7.958;2022-09-13T17:18:16;25.00;99.90
2603;DHT22;1311;47.966;7.958;2022-09-13T17:20:43;24.90;99.90
2603;DHT22;1311;47.966;7.958;2022-09-13T17:23:10;24.90;99.90
2603;DHT22;1311;47.966;7.958;2022-09-13T17:25:39;24.70;99.90
2603;DHT22;1311;47.966;7.958;2022-09-13T17:28:09;24.60;99.90
2603;DHT22;1311;47.966;7.958;2022-09-13T17:33:03;24.50;99.90
2603;DHT22;1311;47.966;7.958;2022-09-13T17:37:57;24.40;99.90
2603;DHT22;1311;47.966;7.958;2022-09-13T17:40:24;24.30;99.90
2603;DHT22;1311;47.966;7.958;2022-09-13T17:42:51;24.30;99.90
2603;DHT22;1311;47.966;7.958;2022-09-13T17:45:19;24.20;99.90
2603;DHT22;1311;47.966;7.958;2022-09-13T17:50:14;24.10;99.90
2603;DHT22;1311;47.966;7.958;2022-09-13T17:52:41;24.00;99.90
2603;DHT22;1311;47.966;7.958;2022-09-13T17:55:08;23.90;99.90
2603;DHT22;1311;47.966;7.958;2022-09-13T17:57:36;23.80;99.90
2603;DHT22;1311;47.966;7.958;2022-09-13T18:00:03;23.70;99.90
2603;DHT22;1311;47.966;7.958;2022-09-13T18:02:32;23.70;99.90
2603;DHT22;1311;47.966;7.958;2022-09-13T18:04:59;23.60;99.90
2603;DHT22;1311;47.966;7.958;2022-09-13T18:09:53;23.50;99.90
2603;DHT22;1311;47.966;7.958;2022-09-13T18:12:20;23.50;99.90
2603;DHT22;1311;47.966;7.958;2022-09-13T18:14:46;23.50;99.90
2603;DHT22;1311;47.966;7.958;2022-09-13T18:17:13;23.30;99.90
2603;DHT22;1311;47.966;7.958;2022-09-13T18:19:41;23.30;99.90
2603;DHT22;1311;47.966;7.958;2022-09-13T18:22:08;23.20;99.90
2603;DHT22;1311;47.966;7.958;2022-09-13T18:27:02;23.10;99.90
2603;DHT22;1311;47.966;7.958;2022-09-13T18:29:29;23.00;99.90
2603;DHT22;1311;47.966;7.958;2022-09-13T18:31:57;23.00;99.90
2603;DHT22;1311;47.966;7.958;2022-09-13T18:34:24;22.90;99.90
2603;DHT22;1311;47.966;7.958;2022-09-13T18:36:52;22.90;99.90
2603;DHT22;1311;47.966;7.958;2022-09-13T18:39:20;22.80;99.90
2603;DHT22;1311;47.966;7.958;2022-09-13T18:41:48;22.70;99.90
2603;DHT22;1311;47.966;7.958;2022-09-13T18:44:15;22.60;99.90
2603;DHT22;1311;47.966;7.958;2022-09-13T18:49:11;22.50;99.90
2603;DHT22;1311;47.966;7.958;2022-09-13T18:51:39;22.50;99.90
2603;DHT22;1311;47.966;7.958;2022-09-13T18:54:11;22.50;99.90
2603;DHT22;1311;47.966;7.958;2022-09-13T18:59:07;22.30;99.90
2603;DHT22;1311;47.966;7.958;2022-09-13T19:01:35;22.30;99.90
2603;DHT22;1311;47.966;7.958;2022-09-13T19:04:05;22.30;99.90
2603;DHT22;1311;47.966;7.958;2022-09-13T19:06:33;22.20;99.90
2603;DHT22;1311;47.966;7.958;2022-09-13T19:09:01;22.20;99.90
2603;DHT22;1311;47.966;7.958;2022-09-13T19:11:35;22.20;99.90
2603;DHT22;1311;47.966;7.958;2022-09-13T19:14:03;22.20;99.90
2603;DHT22;1311;47.966;7.958;2022-09-13T19:18:57;22.20;99.90
2603;DHT22;1311;47.966;7.958;2022-09-13T19:21:25;22.10;99.90
2603;DHT22;1311;47.966;7.958;2022-09-13T19:23:54;22.10;99.90
2603;DHT22;1311;47.966;7.958;2022-09-13T19:26:23;22.00;99.90
2603;DHT22;1311;47.966;7.958;2022-09-13T19:28:52;22.00;99.90
2603;DHT22;1311;47.966;7.958;2022-09-13T19:31:21;21.90;99.90
2603;DHT22;1311;47.966;7.958;2022-09-13T19:33:49;21.90;99.90
2603;DHT22;1311;47.966;7.958;2022-09-13T19:36:18;21.90;99.90
2603;DHT22;1311;47.966;7.958;2022-09-13T19:38:46;21.80;99.90
2603;DHT22;1311;47.966;7.958;2022-09-13T19:41:15;21.80;99.90
2603;DHT22;1311;47.966;7.958;2022-09-13T19:43:43;21.80;99.90
2603;DHT22;1311;47.966;7.958;2022-09-13T19:46:15;21.70;99.90
2603;DHT22;1311;47.966;7.958;2022-09-13T19:48:45;21.70;99.90
2603;DHT22;1311;47.966;7.958;2022-09-13T19:51:15;21.60;99.90
2603;DHT22;1311;47.966;7.958;2022-09-13T19:53:43;21.60;99.90
2603;DHT22;1311;47.966;7.958;2022-09-13T19:56:12;21.50;99.90
2603;DHT22;1311;47.966;7.958;2022-09-13T19:58:40;21.50;99.90
2603;DHT22;1311;47.966;7.958;2022-09-13T20:01:08;21.40;99.90
2603;DHT22;1311;47.966;7.958;2022-09-13T20:03:37;21.30;99.90
2603;DHT22;1311;47.966;7.958;2022-09-13T20:06:05;21.30;99.90
2603;DHT22;1311;47.966;7.958;2022-09-13T20:08:33;21.20;99.90
2603;DHT22;1311;47.966;7.958;2022-09-13T20:11:03;21.20;99.90
2603;DHT22;1311;47.966;7.958;2022-09-13T20:13:30;21.20;99.90